createdAt,value
2022-11-15T00:00:25.966Z,2.60
2022-11-15T00:02:48.676Z,2.78
2022-11-15T00:05:10.013Z,3.00
2022-11-15T00:07:54.156Z,2.90
2022-11-15T00:10:12.578Z,2.75
2022-11-15T00:12:33.740Z,2.97
2022-11-15T00:14:54.822Z,2.92
2022-11-15T00:17:16.063Z,2.25
2022-11-15T00:19:38.721Z,2.78
2022-11-15T00:21:59.739Z,2.50
2022-11-15T00:24:21.012Z,2.60
2022-11-15T00:26:42.216Z,2.05
2022-11-15T00:29:03.262Z,2.58
2022-11-15T00:31:24.393Z,2.60
2022-11-15T00:33:46.269Z,3.90
2022-11-15T00:36:11.688Z,4.72
2022-11-15T00:38:34.279Z,4.20
2022-11-15T00:40:55.508Z,3.28
2022-11-15T00:43:17.029Z,3.40
2022-11-15T00:45:38.288Z,3.17
2022-11-15T00:47:59.540Z,2.80
2022-11-15T00:50:21.221Z,3.47
2022-11-15T00:52:43.821Z,4.05
2022-11-15T00:55:05.484Z,5.88
2022-11-15T00:57:26.772Z,3.58
2022-11-15T00:59:47.945Z,2.80
2022-11-15T01:02:09.327Z,3.22
2022-11-15T01:04:30.769Z,3.33
2022-11-15T01:06:52.177Z,3.40
2022-11-15T01:09:15.538Z,3.22
2022-11-15T01:11:37.089Z,2.67
2022-11-15T01:13:58.178Z,3.15
2022-11-15T01:16:20.690Z,4.10
2022-11-15T01:18:41.938Z,4.97
2022-11-15T01:21:08.004Z,3.90
2022-11-15T01:23:29.779Z,3.40
2022-11-15T01:25:52.775Z,3.17
2022-11-15T01:28:14.023Z,3.35
2022-11-15T01:30:35.352Z,3.10
2022-11-15T01:32:56.393Z,4.18
2022-11-15T01:35:17.802Z,3.35
2022-11-15T01:37:39.105Z,2.80
2022-11-15T01:40:00.253Z,2.90
2022-11-15T01:42:22.677Z,2.90
2022-11-15T01:44:46.437Z,3.30
2022-11-15T01:47:12.492Z,3.30
2022-11-15T01:49:37.269Z,2.83
2022-11-15T01:51:59.543Z,3.22
2022-11-15T01:54:23.350Z,2.70
2022-11-15T01:56:50.342Z,2.75
2022-11-15T01:59:13.910Z,2.45
2022-11-15T02:01:35.972Z,2.20
2022-11-15T02:04:01.623Z,2.30
2022-11-15T02:06:23.893Z,2.47
2022-11-15T02:08:46.069Z,2.90
2022-11-15T02:11:10.018Z,2.95
2022-11-15T02:13:32.018Z,2.30
2022-11-15T02:16:11.082Z,3.00
2022-11-15T02:18:37.688Z,2.60
2022-11-15T02:24:59.773Z,2.92
2022-11-15T02:27:44.205Z,2.38
2022-11-15T02:30:26.484Z,2.78
2022-11-15T02:32:53.184Z,2.38
2022-11-15T02:35:21.494Z,2.42
2022-11-15T02:37:49.843Z,2.13
2022-11-15T02:40:19.453Z,2.10
2022-11-15T02:43:08.550Z,1.95
2022-11-15T02:45:36.014Z,2.20
2022-11-15T02:48:01.105Z,3.10
2022-11-15T02:50:26.565Z,3.65
2022-11-15T02:52:50.463Z,4.03
2022-11-15T02:55:30.845Z,2.40
2022-11-15T02:58:00.270Z,2.08
2022-11-15T03:00:23.055Z,2.40
2022-11-15T03:02:59.117Z,4.88
2022-11-15T03:05:28.147Z,5.00
2022-11-15T03:08:01.861Z,4.18
2022-11-15T03:10:29.267Z,4.30
2022-11-15T03:12:57.860Z,4.10
2022-11-15T03:15:23.808Z,3.58
2022-11-15T03:17:53.571Z,2.65
2022-11-15T03:20:17.896Z,2.40
2022-11-15T03:22:44.085Z,2.50
2022-11-15T03:25:10.927Z,2.38
2022-11-15T03:27:38.077Z,2.30
2022-11-15T03:30:02.885Z,2.50
2022-11-15T03:32:27.870Z,2.75
2022-11-15T03:34:54.291Z,2.65
2022-11-15T03:37:18.243Z,2.90
2022-11-15T03:39:40.052Z,4.85
2022-11-15T03:42:14.542Z,12.23
2022-11-15T03:44:44.303Z,15.02
2022-11-15T03:47:11.475Z,5.40
2022-11-15T03:49:36.452Z,4.18
2022-11-15T03:52:01.022Z,3.83
2022-11-15T03:54:22.336Z,6.50
2022-11-15T03:56:43.655Z,8.05
2022-11-15T03:59:04.937Z,7.63
2022-11-15T04:01:26.425Z,6.50
2022-11-15T04:03:48.104Z,4.10
2022-11-15T04:06:09.538Z,2.85
2022-11-15T04:08:32.539Z,2.92
2022-11-15T04:10:54.160Z,2.70
2022-11-15T04:13:15.598Z,2.58
2022-11-15T04:15:37.101Z,2.40
2022-11-15T04:17:59.219Z,2.88
2022-11-15T04:20:40.720Z,2.45
2022-11-15T04:23:21.398Z,8.52
2022-11-15T04:25:45.344Z,9.05
2022-11-15T04:28:07.023Z,8.10
2022-11-15T04:30:28.437Z,8.23
2022-11-15T04:32:49.671Z,3.72
2022-11-15T04:35:11.372Z,2.92
2022-11-15T04:37:31.646Z,7.93
2022-11-15T04:39:52.882Z,7.88
2022-11-15T04:42:15.453Z,8.80
2022-11-15T04:44:37.288Z,4.40
2022-11-15T04:46:58.795Z,5.25
2022-11-15T04:49:20.369Z,3.30
2022-11-15T04:51:41.567Z,3.17
2022-11-15T04:54:02.776Z,2.80
2022-11-15T04:56:23.963Z,2.78
2022-11-15T04:58:46.568Z,2.63
2022-11-15T05:01:09.671Z,2.83
2022-11-15T05:03:48.847Z,2.92
2022-11-15T05:06:10.593Z,2.85
2022-11-15T05:08:31.856Z,2.60
2022-11-15T05:10:53.015Z,3.58
2022-11-15T05:13:14.325Z,3.90
2022-11-15T05:15:36.885Z,4.25
2022-11-15T05:18:00.963Z,3.88
2022-11-15T05:20:22.403Z,3.42
2022-11-15T05:22:43.742Z,4.97
2022-11-15T05:25:05.763Z,3.05
2022-11-15T05:27:27.105Z,3.58
2022-11-15T05:29:48.577Z,3.58
2022-11-15T05:32:11.923Z,3.22
2022-11-15T05:34:33.865Z,5.47
2022-11-15T05:36:55.769Z,6.82
2022-11-15T05:39:17.131Z,7.65
2022-11-15T05:41:43.950Z,9.98
2022-11-15T05:44:10.127Z,5.20
2022-11-15T05:46:31.677Z,3.90
2022-11-15T05:48:56.921Z,5.35
2022-11-15T05:51:21.593Z,5.60
2022-11-15T05:53:43.689Z,4.90
2022-11-15T05:56:06.695Z,4.40
2022-11-15T05:58:28.269Z,4.88
2022-11-15T06:00:50.056Z,4.72
2022-11-15T06:03:11.650Z,4.90
2022-11-15T06:05:34.644Z,5.05
2022-11-15T06:07:59.902Z,4.50
2022-11-15T06:10:20.954Z,4.50
2022-11-15T06:12:42.387Z,4.68
2022-11-15T06:15:03.944Z,5.18
2022-11-15T06:17:25.739Z,4.05
2022-11-15T06:19:46.962Z,5.18
2022-11-15T06:22:10.444Z,3.97
2022-11-15T06:24:31.990Z,3.78
2022-11-15T06:26:53.612Z,2.92
2022-11-15T06:29:15.226Z,3.35
2022-11-15T06:31:36.571Z,3.33
2022-11-15T06:33:58.174Z,4.28
2022-11-15T06:36:19.704Z,4.75
2022-11-15T06:38:42.504Z,4.80
2022-11-15T06:41:04.439Z,4.53
2022-11-15T06:43:25.697Z,4.60
2022-11-15T06:45:47.017Z,4.60
2022-11-15T06:48:08.533Z,4.57
2022-11-15T06:50:29.855Z,4.57
2022-11-15T06:52:51.317Z,3.92
2022-11-15T06:55:14.156Z,4.30
2022-11-15T06:57:35.604Z,6.43
2022-11-15T06:59:56.821Z,8.07
2022-11-15T07:02:18.128Z,11.82
2022-11-15T07:04:39.548Z,14.82
2022-11-15T07:07:00.944Z,10.45
2022-11-15T07:09:22.693Z,9.32
2022-11-15T07:11:45.529Z,7.65
2022-11-15T07:14:06.880Z,6.72
2022-11-15T07:16:28.146Z,4.85
2022-11-15T07:18:49.376Z,5.10
2022-11-15T07:21:13.651Z,4.40
2022-11-15T07:23:35.470Z,5.03
2022-11-15T07:25:59.190Z,5.43
2022-11-15T07:28:22.388Z,5.20
2022-11-15T07:30:45.360Z,4.80
2022-11-15T07:33:07.195Z,5.05
2022-11-15T07:35:30.227Z,4.65
2022-11-15T07:37:57.018Z,10.40
2022-11-15T07:40:18.410Z,11.20
2022-11-15T07:42:58.121Z,8.68
2022-11-15T07:45:21.194Z,6.05
2022-11-15T07:47:42.632Z,6.30
2022-11-15T07:50:04.111Z,7.15
2022-11-15T07:52:25.546Z,5.95
2022-11-15T07:54:46.749Z,6.75
2022-11-15T07:57:10.157Z,6.18
2022-11-15T07:59:31.629Z,5.10
2022-11-15T08:01:54.524Z,5.75
2022-11-15T08:04:16.622Z,7.75
2022-11-15T08:06:38.168Z,5.13
2022-11-15T08:08:59.626Z,4.75
2022-11-15T08:11:21.048Z,4.78
2022-11-15T08:13:42.260Z,5.05
2022-11-15T08:16:06.284Z,4.80
2022-11-15T08:18:29.004Z,4.75
2022-11-15T08:20:50.465Z,4.70
2022-11-15T08:23:13.813Z,5.07
2022-11-15T08:25:36.063Z,4.13
2022-11-15T08:27:58.917Z,4.40
2022-11-15T08:30:20.800Z,3.58
2022-11-15T08:32:42.361Z,5.78
2022-11-15T08:35:05.736Z,3.80
2022-11-15T08:37:27.158Z,3.63
2022-11-15T08:39:48.421Z,4.40
2022-11-15T08:42:09.537Z,4.63
2022-11-15T08:44:30.789Z,3.35
2022-11-15T08:46:52.168Z,3.47
2022-11-15T08:49:13.764Z,4.93
2022-11-15T08:51:36.607Z,5.05
2022-11-15T08:53:58.005Z,8.95
2022-11-15T08:56:19.224Z,16.52
2022-11-15T08:58:40.802Z,13.98
2022-11-15T09:01:02.052Z,5.93
2022-11-15T09:03:23.424Z,3.78
2022-11-15T09:05:44.632Z,4.10
2022-11-15T09:08:25.615Z,4.10
2022-11-15T09:10:48.841Z,4.53
2022-11-15T09:13:10.061Z,3.50
2022-11-15T09:15:31.211Z,3.47
2022-11-15T09:17:52.381Z,3.65
2022-11-15T09:20:13.879Z,3.60
2022-11-15T09:22:35.505Z,3.20
2022-11-15T09:24:58.263Z,2.80
2022-11-15T09:27:19.612Z,2.72
2022-11-15T09:29:40.934Z,2.80
2022-11-15T09:32:02.297Z,3.03
2022-11-15T09:34:23.905Z,3.65
2022-11-15T09:36:45.457Z,2.80
2022-11-15T09:39:06.739Z,3.30
2022-11-15T09:41:53.069Z,3.13
2022-11-15T09:44:31.644Z,3.10
2022-11-15T09:47:03.071Z,2.77
2022-11-15T09:49:35.480Z,2.47
2022-11-15T09:51:53.041Z,2.67
2022-11-15T09:56:29.349Z,2.37
2022-11-15T09:58:40.466Z,2.40
2022-11-15T10:00:49.612Z,2.30
2022-11-15T10:03:05.175Z,2.40
2022-11-15T10:05:12.364Z,2.50
2022-11-15T10:07:20.243Z,2.40
2022-11-15T10:09:28.497Z,2.37
2022-11-15T10:11:38.962Z,2.33
2022-11-15T10:13:47.223Z,2.07
2022-11-15T10:15:51.427Z,2.00
2022-11-15T10:18:11.095Z,2.30
2022-11-15T10:20:19.864Z,2.30
2022-11-15T10:22:40.713Z,2.20
2022-11-15T10:24:45.171Z,3.03
2022-11-15T10:26:49.091Z,2.80
2022-11-15T10:28:53.363Z,2.47
2022-11-15T10:30:58.117Z,3.23
2022-11-15T10:33:32.017Z,3.23
2022-11-15T10:35:35.095Z,4.17
2022-11-15T10:37:38.121Z,3.70
2022-11-15T10:39:41.007Z,3.80
2022-11-15T10:41:44.511Z,2.10
2022-11-15T10:44:03.241Z,2.83
2022-11-15T10:46:44.937Z,2.50
2022-11-15T10:48:46.105Z,2.30
2022-11-15T10:50:50.738Z,1.93
2022-11-15T10:52:53.851Z,2.10
2022-11-15T10:55:01.384Z,2.70
2022-11-15T10:57:11.483Z,2.73
2022-11-15T10:59:28.948Z,2.40
2022-11-15T11:01:33.312Z,2.87
2022-11-15T11:03:38.603Z,4.80
2022-11-15T11:05:43.259Z,2.83
2022-11-15T11:07:58.777Z,3.30
2022-11-15T11:10:13.324Z,2.60
2022-11-15T11:12:32.405Z,3.00
2022-11-15T11:14:37.803Z,2.80
2022-11-15T11:16:50.648Z,2.50
2022-11-15T11:19:04.304Z,2.80
2022-11-15T11:21:13.609Z,2.73
2022-11-15T11:23:30.896Z,3.03
2022-11-15T11:25:38.246Z,2.90
2022-11-15T11:27:49.850Z,3.00
2022-11-15T11:30:04.730Z,2.90
2022-11-15T11:32:34.189Z,2.63
2022-11-15T11:34:50.620Z,2.97
2022-11-15T11:37:05.652Z,3.10
2022-11-15T11:39:26.339Z,2.90
2022-11-15T11:41:51.610Z,3.47
2022-11-15T11:44:05.808Z,3.30
2022-11-15T11:46:23.741Z,3.27
2022-11-15T11:48:42.229Z,3.30
2022-11-15T11:50:47.613Z,3.10
2022-11-15T11:53:03.591Z,2.60
2022-11-15T11:55:16.887Z,3.13
2022-11-15T11:57:30.098Z,3.10
2022-11-15T11:59:39.532Z,2.77
2022-11-15T12:01:45.269Z,2.63
2022-11-15T12:03:53.125Z,3.37
2022-11-15T12:05:58.690Z,2.90
2022-11-15T12:08:15.065Z,3.27
2022-11-15T12:10:24.670Z,3.00
2022-11-15T12:12:37.182Z,3.17
2022-11-15T12:14:44.851Z,3.70
2022-11-15T12:16:47.761Z,2.70
2022-11-15T12:18:55.128Z,2.60
2022-11-15T12:21:01.690Z,3.00
2022-11-15T12:23:09.164Z,2.97
2022-11-15T12:25:20.839Z,2.97
2022-11-15T12:27:33.285Z,3.07
2022-11-15T12:29:39.888Z,2.80
2022-11-15T12:31:47.364Z,3.50
2022-11-15T12:33:57.003Z,3.00
2022-11-15T12:36:02.262Z,3.00
2022-11-15T12:38:06.077Z,3.80
2022-11-15T12:40:34.593Z,3.60
2022-11-15T12:42:42.607Z,3.10
2022-11-15T12:45:01.144Z,3.00
2022-11-15T12:47:23.539Z,2.80
2022-11-15T12:49:48.128Z,2.70
2022-11-15T12:52:07.994Z,3.23
2022-11-15T12:54:49.700Z,3.10
2022-11-15T12:57:29.686Z,3.60
2022-11-15T12:59:51.015Z,3.30
2022-11-15T13:02:00.692Z,3.20
2022-11-15T13:04:27.166Z,3.27
2022-11-15T13:06:40.959Z,3.03
2022-11-15T13:08:50.641Z,3.00
2022-11-15T13:10:53.573Z,2.87
2022-11-15T13:12:58.894Z,3.20
2022-11-15T13:15:02.916Z,4.40
2022-11-15T13:17:36.014Z,3.60
2022-11-15T13:19:39.114Z,6.50
2022-11-15T13:22:20.374Z,5.23
2022-11-15T13:24:23.392Z,5.33
2022-11-15T13:26:26.674Z,12.57
2022-11-15T13:28:36.176Z,10.23
2022-11-15T13:30:39.874Z,6.23
2022-11-15T13:32:42.832Z,9.80
2022-11-15T13:34:52.719Z,7.77
2022-11-15T13:36:58.221Z,8.50
2022-11-15T13:39:03.952Z,7.27
2022-11-15T13:41:19.625Z,5.60
2022-11-15T13:43:30.879Z,4.50
2022-11-15T13:45:33.847Z,4.67
2022-11-15T13:47:36.802Z,4.60
2022-11-15T13:49:39.695Z,4.80
2022-11-15T13:51:48.680Z,4.77
2022-11-15T13:53:57.082Z,5.10
2022-11-15T13:56:00.719Z,4.80
2022-11-15T13:58:07.275Z,4.93
2022-11-15T14:00:28.461Z,5.00
2022-11-15T14:02:34.316Z,4.90
2022-11-15T14:04:41.548Z,6.37
2022-11-15T14:06:51.067Z,6.93
2022-11-15T14:09:25.105Z,5.90
2022-11-15T14:11:28.379Z,5.83
2022-11-15T14:13:33.651Z,6.20
2022-11-15T14:15:38.198Z,7.47
2022-11-15T14:17:45.654Z,7.27
2022-11-15T14:19:53.782Z,6.80
2022-11-15T14:22:30.461Z,7.13
2022-11-15T14:24:34.728Z,6.70
2022-11-15T14:26:37.668Z,6.70
2022-11-15T14:28:40.612Z,6.13
2022-11-15T14:30:47.247Z,6.77
2022-11-15T14:32:51.802Z,6.67
2022-11-15T14:34:58.141Z,6.63
2022-11-15T14:37:01.081Z,6.50
2022-11-15T14:39:06.194Z,6.10
2022-11-15T14:41:19.104Z,6.70
2022-11-15T14:43:22.017Z,7.27
2022-11-15T14:45:24.888Z,7.03
2022-11-15T14:47:27.843Z,7.03
2022-11-15T14:49:30.693Z,6.70
2022-11-15T14:51:34.204Z,6.43
2022-11-15T14:53:37.090Z,6.10
2022-11-15T14:55:40.246Z,5.87
2022-11-15T14:57:44.559Z,5.70
2022-11-15T14:59:47.486Z,6.50
2022-11-15T15:01:50.316Z,7.47
2022-11-15T15:03:55.078Z,6.90
2022-11-15T15:05:57.929Z,6.33
2022-11-15T15:08:01.148Z,6.70
2022-11-15T15:10:37.840Z,6.27
2022-11-15T15:12:27.124Z,8.70
2022-11-15T15:14:31.401Z,20.30
2022-11-15T15:16:34.340Z,17.47
2022-11-15T15:18:37.204Z,10.87
2022-11-15T15:20:42.368Z,8.90
2022-11-15T15:22:45.819Z,7.50
2022-11-15T15:24:48.701Z,7.30
2022-11-15T15:26:52.904Z,6.93
2022-11-15T15:28:55.824Z,8.10
2022-11-15T15:31:00.023Z,7.30
2022-11-15T15:33:02.920Z,2.15
2022-11-15T15:35:06.526Z,2.70
2022-11-15T15:37:27.340Z,3.37
2022-11-15T15:39:30.224Z,4.17
2022-11-15T15:41:33.117Z,5.87
2022-11-15T15:43:36.069Z,5.77
2022-11-15T15:45:40.292Z,6.17
2022-11-15T15:47:45.446Z,6.57
2022-11-15T15:49:48.598Z,6.67
2022-11-15T15:51:51.602Z,6.43
2022-11-15T15:53:58.081Z,6.17
2022-11-15T15:56:01.106Z,6.63
2022-11-15T15:58:04.029Z,6.93
2022-11-15T16:00:08.210Z,10.87
2022-11-15T16:02:15.521Z,9.53
2022-11-15T16:04:19.829Z,8.83
2022-11-15T16:06:36.524Z,7.87
2022-11-15T16:09:00.495Z,8.00
2022-11-15T16:11:04.619Z,7.30
2022-11-15T16:13:07.533Z,7.73
2022-11-15T16:15:11.198Z,7.73
2022-11-15T16:17:20.649Z,7.50
2022-11-15T16:19:24.869Z,8.50
2022-11-15T16:21:27.756Z,10.03
2022-11-15T16:23:30.636Z,10.35
2022-11-15T16:25:37.096Z,12.07
2022-11-15T16:27:45.821Z,13.38
2022-11-15T16:29:49.349Z,12.40
2022-11-15T16:31:52.312Z,10.60
2022-11-15T16:33:55.245Z,10.07
2022-11-15T16:35:59.547Z,10.77
2022-11-15T16:38:02.476Z,9.83
2022-11-15T16:40:06.305Z,10.90
2022-11-15T16:42:09.221Z,11.60
2022-11-15T16:44:12.071Z,12.02
2022-11-15T16:46:18.612Z,11.47
2022-11-15T16:48:25.285Z,9.95
2022-11-15T16:50:30.771Z,9.88
2022-11-15T16:52:35.084Z,10.02
2022-11-15T16:54:38.152Z,10.40
2022-11-15T16:56:41.931Z,10.18
2022-11-15T16:58:44.883Z,11.43
2022-11-15T17:00:52.581Z,13.05
2022-11-15T17:02:56.091Z,12.10
2022-11-15T17:04:59.004Z,14.40
2022-11-15T17:07:01.994Z,14.18
2022-11-15T17:09:06.456Z,15.30
2022-11-15T17:11:10.375Z,15.43
2022-11-15T17:13:13.883Z,16.17
2022-11-15T17:15:17.544Z,14.40
2022-11-15T17:17:20.504Z,13.50
2022-11-15T17:19:23.418Z,14.07
2022-11-15T17:21:32.581Z,9.88
2022-11-15T17:23:36.838Z,9.65
2022-11-15T17:25:41.440Z,8.90
2022-11-15T17:27:44.352Z,10.00
2022-11-15T17:29:47.260Z,10.70
2022-11-15T17:31:50.203Z,11.25
2022-11-15T17:33:53.127Z,9.43
2022-11-15T17:35:59.597Z,7.85
2022-11-15T17:38:02.529Z,6.05
2022-11-15T17:40:06.253Z,5.93
2022-11-15T17:42:10.793Z,6.10
2022-11-15T17:44:14.256Z,5.55
2022-11-15T17:46:19.175Z,6.07
2022-11-15T17:48:22.187Z,6.20
2022-11-15T17:50:25.158Z,7.72
2022-11-15T17:52:28.025Z,7.75
2022-11-15T17:54:30.984Z,8.95
2022-11-15T17:56:33.928Z,10.20
2022-11-15T17:58:38.654Z,9.88
2022-11-15T18:00:41.671Z,8.52
2022-11-15T18:02:44.670Z,9.63
2022-11-15T18:04:47.579Z,9.20
2022-11-15T18:06:50.555Z,7.20
2022-11-15T18:08:56.037Z,5.82
2022-11-15T18:11:07.770Z,5.20
2022-11-15T18:13:10.672Z,4.38
2022-11-15T18:15:15.066Z,4.82
2022-11-15T18:17:19.075Z,4.70
2022-11-15T18:19:22.058Z,4.90
2022-11-15T18:21:26.662Z,5.03
2022-11-15T18:23:29.587Z,3.83
2022-11-15T18:25:32.520Z,6.50
2022-11-15T18:27:35.514Z,4.22
2022-11-15T18:29:38.644Z,4.90
2022-11-15T18:31:47.572Z,12.80
2022-11-15T18:33:52.306Z,16.73
2022-11-15T18:36:03.272Z,15.23
2022-11-15T18:38:07.218Z,14.25
2022-11-15T18:40:10.961Z,13.30
2022-11-15T18:42:13.865Z,19.70
2022-11-15T18:44:17.349Z,15.52
2022-11-15T18:46:22.254Z,14.07
2022-11-15T18:48:26.553Z,15.32
2022-11-15T18:50:29.454Z,13.45
2022-11-15T18:52:32.535Z,14.05
2022-11-15T18:54:35.434Z,13.88
2022-11-15T18:56:39.087Z,14.70
2022-11-15T18:58:43.841Z,14.85
2022-11-15T19:00:46.735Z,13.13
2022-11-15T19:02:49.615Z,9.55
2022-11-15T19:04:53.894Z,10.90
2022-11-15T19:06:56.818Z,10.77
2022-11-15T19:09:01.678Z,10.60
2022-11-15T19:11:06.453Z,12.07
2022-11-15T19:13:09.318Z,11.15
2022-11-15T19:15:12.722Z,12.02
2022-11-15T19:17:15.719Z,12.93
2022-11-15T19:19:21.276Z,13.32
2022-11-15T19:21:26.714Z,16.90
2022-11-15T19:23:30.357Z,19.60
2022-11-15T19:25:34.501Z,15.88
2022-11-15T19:27:38.327Z,16.63
2022-11-15T19:29:41.877Z,15.38
2022-11-15T19:31:44.844Z,18.17
2022-11-15T19:33:48.242Z,20.35
2022-11-15T19:35:51.143Z,23.88
2022-11-15T19:37:55.384Z,50.90
2022-11-15T19:39:58.295Z,28.13
2022-11-15T19:42:01.218Z,14.23
2022-11-15T19:44:04.460Z,13.70
2022-11-15T19:46:08.974Z,13.48
2022-11-15T19:48:11.908Z,16.33
2022-11-15T19:50:14.949Z,16.85
2022-11-15T19:52:17.878Z,16.95
2022-11-15T19:54:22.157Z,15.82
2022-11-15T19:56:25.841Z,14.07
2022-11-15T19:58:29.830Z,13.18
2022-11-15T20:00:32.714Z,13.25
2022-11-15T20:02:35.591Z,11.93
2022-11-15T20:04:38.513Z,10.50
2022-11-15T20:06:43.116Z,10.38
2022-11-15T20:08:47.812Z,10.95
2022-11-15T20:10:52.074Z,9.15
2022-11-15T20:12:54.975Z,10.55
2022-11-15T20:14:57.845Z,7.93
2022-11-15T20:17:00.902Z,9.10
2022-11-15T20:19:03.800Z,16.67
2022-11-15T20:21:08.076Z,18.73
2022-11-15T20:23:11.302Z,22.17
2022-11-15T20:25:15.409Z,18.70
2022-11-15T20:27:19.917Z,12.70
2022-11-15T20:29:23.437Z,9.90
2022-11-15T20:31:26.379Z,19.02
2022-11-15T20:33:29.664Z,19.70
2022-11-15T20:35:32.515Z,15.43
2022-11-15T20:37:36.178Z,21.27
2022-11-15T20:39:39.355Z,14.50
2022-11-15T20:41:42.245Z,14.75
2022-11-15T20:43:46.509Z,12.38
2022-11-15T20:45:50.697Z,14.82
2022-11-15T20:47:56.175Z,9.82
2022-11-15T20:50:09.896Z,10.23
2022-11-15T20:52:23.139Z,10.85
2022-11-15T20:54:26.097Z,6.95
2022-11-15T20:56:29.040Z,7.15
2022-11-15T20:58:32.576Z,7.45
2022-11-15T21:00:37.825Z,8.70
2022-11-15T21:02:40.765Z,5.88
2022-11-15T21:04:43.699Z,5.80
2022-11-15T21:06:48.834Z,6.85
2022-11-15T21:09:10.755Z,9.05
2022-11-15T21:11:31.111Z,8.20
2022-11-15T21:13:34.087Z,5.75
2022-11-15T21:15:38.343Z,4.85
2022-11-15T21:17:41.336Z,5.53
2022-11-15T21:19:44.577Z,5.78
2022-11-15T21:21:47.790Z,5.25
2022-11-15T21:23:50.664Z,4.60
2022-11-15T21:25:53.760Z,4.40
2022-11-15T21:27:56.605Z,4.90
2022-11-15T21:29:59.512Z,4.00
2022-11-15T21:32:06.970Z,4.60
2022-11-15T21:34:10.217Z,4.88
2022-11-15T21:36:13.132Z,5.63
2022-11-15T21:38:16.040Z,6.55
2022-11-15T21:40:19.000Z,6.30
2022-11-15T21:42:22.268Z,5.45
2022-11-15T21:44:25.241Z,5.68
2022-11-15T21:46:29.249Z,6.68
2022-11-15T21:48:35.956Z,6.63
2022-11-15T21:50:39.023Z,7.10
2022-11-15T21:52:41.917Z,7.30
2022-11-15T21:54:44.813Z,6.13
2022-11-15T21:56:47.849Z,6.35
2022-11-15T21:58:50.714Z,6.32
2022-11-15T22:01:13.390Z,5.70
2022-11-15T22:03:16.330Z,6.13
2022-11-15T22:05:20.677Z,5.70
2022-11-15T22:07:23.590Z,6.15
2022-11-15T22:09:26.574Z,6.72
2022-11-15T22:11:29.719Z,5.68
2022-11-15T22:13:32.773Z,5.72
2022-11-15T22:15:35.736Z,5.35
2022-11-15T22:17:56.874Z,5.13
2022-11-15T22:20:07.756Z,4.63
2022-11-15T22:22:24.478Z,4.63
2022-11-15T22:24:27.570Z,4.68
2022-11-15T22:26:30.650Z,4.22
2022-11-15T22:28:34.218Z,4.25
2022-11-15T22:30:37.563Z,4.10
2022-11-15T22:32:40.596Z,4.15
2022-11-15T22:34:43.708Z,4.70
2022-11-15T22:37:18.399Z,4.10
2022-11-15T22:39:11.353Z,4.25
2022-11-15T22:41:14.407Z,4.60
2022-11-15T22:43:21.033Z,6.68
2022-11-15T22:45:24.108Z,5.10
2022-11-15T22:47:27.659Z,5.68
2022-11-15T22:49:30.723Z,6.40
2022-11-15T22:51:33.838Z,6.65
2022-11-15T22:53:36.872Z,8.80
2022-11-15T22:55:41.803Z,6.65
2022-11-15T22:57:45.147Z,6.80
2022-11-15T22:59:48.238Z,7.82
2022-11-15T23:01:51.893Z,6.90
2022-11-15T23:03:55.302Z,6.30
2022-11-15T23:06:02.838Z,4.70
2022-11-15T23:08:06.288Z,4.70
2022-11-15T23:10:27.633Z,5.25
2022-11-15T23:12:49.633Z,9.18
2022-11-15T23:14:52.634Z,10.50
2022-11-15T23:16:54.656Z,6.68
2022-11-15T23:18:59.201Z,6.55
2022-11-15T23:21:09.325Z,7.32
2022-11-15T23:23:11.833Z,5.00
2022-11-15T23:25:14.936Z,6.72
2022-11-15T23:27:20.087Z,5.38
2022-11-15T23:29:26.350Z,5.20
2022-11-15T23:31:46.826Z,4.97
2022-11-15T23:33:57.633Z,4.82
2022-11-15T23:36:00.726Z,4.40
2022-11-15T23:38:03.732Z,4.70
2022-11-15T23:40:08.189Z,4.82
2022-11-15T23:42:20.142Z,4.60
2022-11-15T23:44:25.841Z,4.25
2022-11-15T23:46:29.118Z,4.70
2022-11-15T23:48:32.653Z,7.38
2022-11-15T23:50:36.220Z,5.85
2022-11-15T23:52:39.253Z,4.57
2022-11-15T23:54:42.584Z,6.07
2022-11-15T23:56:45.592Z,5.72
2022-11-15T23:58:48.920Z,6.13
